Time;durP1;ratioP1;P1;durP2;ratioP2;P2;SDS_P1;SDS_P2;PMS_P1;PMS_P2;Temp;Humidity;BMP_temperature;BMP_pressure;BME280_temperature;BME280_humidity;BME280_pressure;Samples;Min_cycle;Max_cycle;Signal;HPM_P1;HPM_P2
2022/01/30 00:01:37;;;;;;;3.30;1.60;;;15.90;51.90;;;;;;5034673;28;20093;-80
2022/01/30 00:04:04;;;;;;;3.42;1.42;;;15.90;51.90;;;;;;5034518;28;20048;-81
2022/01/30 00:06:34;;;;;;;3.60;1.45;;;15.90;51.80;;;;;;5039781;28;20030;-81
2022/01/30 00:09:00;;;;;;;2.58;1.30;;;15.90;51.90;;;;;;5040216;28;20014;-81
2022/01/30 00:11:31;;;;;;;3.35;1.50;;;15.90;51.90;;;;;;5020800;28;20044;-80
2022/01/30 00:13:58;;;;;;;2.17;1.17;;;15.90;51.90;;;;;;5018885;28;20014;-81
2022/01/30 00:16:29;;;;;;;3.83;1.50;;;15.90;51.80;;;;;;5034587;28;20059;-80
2022/01/30 00:19:04;;;;;;;3.08;1.40;;;15.80;51.70;;;;;;5058169;28;20021;-80
2022/01/30 00:21:36;;;;;;;3.55;1.58;;;15.80;51.80;;;;;;5020205;28;20037;-81
2022/01/30 00:24:25;;;;;;;3.42;1.42;;;15.80;51.70;;;;;;5018745;28;20020;-78
2022/01/30 00:26:51;;;;;;;5.70;1.60;;;15.80;51.70;;;;;;5021355;28;20016;-78
2022/01/30 00:29:17;;;;;;;3.42;1.50;;;15.90;51.70;;;;;;5017468;28;20018;-79
2022/01/30 00:31:43;;;;;;;4.43;1.30;;;15.80;51.70;;;;;;5019541;28;20025;-78
2022/01/30 00:34:09;;;;;;;2.85;1.20;;;15.80;51.70;;;;;;5034409;28;20539;-78
2022/01/30 00:36:36;;;;;;;3.10;1.33;;;15.80;51.70;;;;;;5001574;28;20129;-78
2022/01/30 00:39:04;;;;;;;3.13;1.23;;;15.80;51.70;;;;;;5035140;28;20484;-78
2022/01/30 00:41:30;;;;;;;4.30;1.52;;;15.80;51.70;;;;;;5034769;28;20016;-78
2022/01/30 00:43:57;;;;;;;4.35;1.60;;;15.80;51.70;;;;;;5035560;28;20033;-78
2022/01/30 00:46:23;;;;;;;4.00;1.52;;;15.80;51.60;;;;;;5041784;28;20057;-77
2022/01/30 00:48:51;;;;;;;3.80;1.48;;;15.80;51.60;;;;;;5059857;28;20025;-77
2022/01/30 00:51:17;;;;;;;2.70;1.15;;;15.80;51.60;;;;;;5042062;28;20081;-77
2022/01/30 00:53:43;;;;;;;2.60;1.20;;;15.80;51.60;;;;;;5058286;28;20034;-78
2022/01/30 00:56:10;;;;;;;4.05;1.20;;;15.80;51.60;;;;;;5039772;28;20024;-78
2022/01/30 00:58:36;;;;;;;1.80;1.00;;;15.80;51.60;;;;;;5000563;28;20019;-78
2022/01/30 01:01:03;;;;;;;3.22;1.50;;;15.80;51.60;;;;;;5034725;28;20038;-78
2022/01/30 01:03:28;;;;;;;3.85;1.23;;;15.80;51.60;;;;;;5033256;28;20100;-78
2022/01/30 01:05:54;;;;;;;1.92;1.00;;;15.80;51.60;;;;;;5033491;28;20071;-78
2022/01/30 01:08:33;;;;;;;2.45;1.20;;;15.80;51.60;;;;;;5033177;28;20014;-78
2022/01/30 01:11:27;;;;;;;3.90;1.40;;;15.80;51.60;;;;;;5033066;28;20108;-78
2022/01/30 01:14:01;;;;;;;3.92;1.50;;;15.80;51.50;;;;;;5032568;28;20045;-78
2022/01/30 01:24:07;;;;;;;2.63;1.30;;;15.80;51.50;;;;;;5016569;28;20053;-79
2022/01/30 01:26:34;;;;;;;3.58;1.38;;;15.80;52.00;;;;;;5034139;28;20383;-78
2022/01/30 01:28:59;;;;;;;3.25;1.35;;;15.70;51.40;;;;;;5000059;28;20108;-79
2022/01/30 01:31:26;;;;;;;2.88;1.33;;;15.80;51.50;;;;;;5016588;28;20021;-79
2022/01/30 01:34:32;;;;;;;3.65;1.52;;;15.70;51.40;;;;;;5034218;28;20117;-78
2022/01/30 01:36:44;;;;;;;3.55;1.33;;;15.80;51.50;;;;;;5018865;28;20022;-78
2022/01/30 01:39:11;;;;;;;2.75;1.38;;;15.70;51.40;;;;;;5032959;28;20101;-78
2022/01/30 01:41:37;;;;;;;3.50;1.63;;;15.70;51.40;;;;;;5032674;28;20464;-79
2022/01/30 01:44:03;;;;;;;3.42;1.48;;;15.70;51.40;;;;;;5016509;28;20017;-79
2022/01/30 01:46:32;;;;;;;2.90;1.35;;;15.70;51.40;;;;;;5016509;28;20048;-78
2022/01/30 01:48:58;;;;;;;4.25;1.40;;;15.70;51.90;;;;;;5033798;28;20025;-78
2022/01/30 01:51:25;;;;;;;6.03;1.48;;;15.70;51.40;;;;;;5032645;28;20026;-79
2022/01/30 01:53:53;;;;;;;3.45;1.38;;;15.80;51.40;;;;;;5016538;28;20025;-79
2022/01/30 01:56:19;;;;;;;5.18;1.58;;;15.70;51.30;;;;;;5016235;28;20096;-78
2022/01/30 01:58:47;;;;;;;2.03;1.25;;;15.70;51.30;;;;;;5015966;28;20044;-78
2022/01/30 02:01:13;;;;;;;3.53;1.27;;;15.70;51.30;;;;;;5000029;28;20014;-78
2022/01/30 02:03:40;;;;;;;3.22;1.25;;;15.70;51.30;;;;;;5033746;28;20101;-85
2022/01/30 02:06:08;;;;;;;4.57;1.65;;;15.70;51.30;;;;;;5034304;28;20033;-85
2022/01/30 02:08:41;;;;;;;2.47;1.23;;;15.70;51.30;;;;;;5036566;28;20040;-85
2022/01/30 02:11:11;;;;;;;3.13;1.45;;;15.70;51.30;;;;;;5021142;28;20017;-84
2022/01/30 02:27:25;;;;;;;2.50;1.20;;;15.70;51.20;;;;;;5014643;28;20037;-80
2022/01/30 02:29:51;;;;;;;2.58;1.20;;;15.70;51.20;;;;;;5015985;28;20018;-81
2022/01/30 02:32:17;;;;;;;1.83;1.00;;;15.60;51.20;;;;;;5015649;28;20017;-80
2022/01/30 02:34:44;;;;;;;3.45;1.52;;;15.60;51.20;;;;;;5031980;28;20087;-80
2022/01/30 02:37:12;;;;;;;2.58;1.20;;;15.60;51.20;;;;;;5032102;28;20014;-80
2022/01/30 02:39:37;;;;;;;4.00;1.40;;;15.70;51.20;;;;;;5015650;28;20017;-80
2022/01/30 02:42:04;;;;;;;3.38;1.25;;;15.60;51.20;;;;;;5032075;28;20024;-80
2022/01/30 02:44:53;;;;;;;2.83;1.38;;;15.70;51.20;;;;;;4999900;28;20014;-80
2022/01/30 02:47:39;;;;;;;1.70;1.00;;;15.70;51.20;;;;;;5034822;28;20036;-79
2022/01/30 02:52:36;;;;;;;5.68;1.48;;;15.60;51.10;;;;;;5035496;28;20068;-80
2022/01/30 02:55:02;;;;;;;4.47;1.25;;;15.70;51.20;;;;;;5015569;28;20026;-80
2022/01/30 02:57:29;;;;;;;2.58;1.50;;;15.60;51.10;;;;;;5031857;28;20452;-81
2022/01/30 02:59:54;;;;;;;2.95;1.10;;;15.60;51.20;;;;;;5032806;28;20045;-80
2022/01/30 03:02:21;;;;;;;3.75;1.30;;;15.60;51.10;;;;;;5015109;28;20053;-81
2022/01/30 03:04:46;;;;;;;3.38;1.42;;;15.60;51.20;;;;;;5031397;28;20029;-81
2022/01/30 03:07:12;;;;;;;2.58;1.27;;;15.60;51.20;;;;;;5031419;28;20025;-81
2022/01/30 03:09:39;;;;;;;3.33;1.50;;;15.60;51.20;;;;;;5015133;28;20120;-81
2022/01/30 03:12:06;;;;;;;3.25;1.50;;;15.60;51.10;;;;;;5032742;28;20017;-81
2022/01/30 03:14:32;;;;;;;4.45;1.48;;;15.60;51.20;;;;;;5015240;28;20017;-80
2022/01/30 03:17:00;;;;;;;3.08;1.50;;;15.60;51.10;;;;;;5031853;28;20021;-80
2022/01/30 03:19:25;;;;;;;4.00;1.45;;;15.60;51.10;;;;;;5031343;28;20439;-81
2022/01/30 03:21:51;;;;;;;2.65;1.52;;;15.60;51.10;;;;;;4998514;28;20009;-81
2022/01/30 03:24:17;;;;;;;2.55;1.40;;;15.60;51.10;;;;;;5031570;28;20020;-81
2022/01/30 03:26:45;;;;;;;3.05;1.08;;;15.60;51.10;;;;;;5037656;28;20041;-80
2022/01/30 03:29:10;;;;;;;4.47;1.67;;;15.60;51.10;;;;;;5038914;28;20035;-80
2022/01/30 03:31:38;;;;;;;3.20;1.35;;;15.60;51.10;;;;;;5037822;28;20037;-79
2022/01/30 03:34:06;;;;;;;3.45;1.30;;;15.50;51.00;;;;;;5037269;28;20076;-80
2022/01/30 03:36:32;;;;;;;2.72;1.30;;;15.60;51.00;;;;;;5002101;28;20009;-81
2022/01/30 03:38:58;;;;;;;3.58;1.60;;;15.60;51.00;;;;;;5037116;28;20356;-80
2022/01/30 03:41:25;;;;;;;3.58;1.50;;;15.60;51.00;;;;;;5038026;28;20010;-80
2022/01/30 03:43:51;;;;;;;2.42;1.33;;;15.50;51.00;;;;;;5034851;28;20021;-80
2022/01/30 03:46:19;;;;;;;4.15;1.20;;;15.50;51.00;;;;;;5018310;28;20041;-80
2022/01/30 03:48:44;;;;;;;3.83;1.33;;;15.60;51.10;;;;;;5018496;28;20108;-80
2022/01/30 03:51:11;;;;;;;2.38;1.17;;;15.60;50.90;;;;;;5018708;28;20033;-80
2022/01/30 03:53:37;;;;;;;4.18;1.10;;;15.70;50.60;;;;;;5034673;28;20426;-81
2022/01/30 03:56:04;;;;;;;4.15;1.73;;;15.70;50.50;;;;;;5034780;28;20009;-80
2022/01/30 03:58:31;;;;;;;4.20;1.77;;;15.80;50.40;;;;;;5018700;28;20095;-80
2022/01/30 04:00:57;;;;;;;2.08;1.15;;;15.90;50.20;;;;;;5018267;28;20013;-80
2022/01/30 04:03:22;;;;;;;3.45;1.45;;;15.90;50.00;;;;;;5034538;28;20475;-80
2022/01/30 04:05:48;;;;;;;2.30;1.10;;;15.90;49.90;;;;;;5034763;28;20026;-80
2022/01/30 04:08:15;;;;;;;3.00;1.45;;;16.00;49.80;;;;;;5018359;28;20041;-80
2022/01/30 04:10:41;;;;;;;2.75;1.25;;;16.10;49.70;;;;;;5034867;28;20067;-81
2022/01/30 04:13:08;;;;;;;2.67;1.20;;;16.10;49.60;;;;;;5034620;28;20032;-81
2022/01/30 04:15:34;;;;;;;2.38;1.17;;;16.20;49.50;;;;;;5035662;28;20468;-80
2022/01/30 04:18:01;;;;;;;3.63;1.60;;;16.20;49.30;;;;;;5017919;28;20018;-80
2022/01/30 04:20:27;;;;;;;2.45;1.17;;;16.30;49.00;;;;;;5001700;28;20013;-80
2022/01/30 04:22:53;;;;;;;4.40;1.40;;;16.40;48.90;;;;;;5017622;28;20532;-80
2022/01/30 04:25:19;;;;;;;2.42;1.15;;;16.40;48.80;;;;;;5035348;28;20026;-80
2022/01/30 04:27:45;;;;;;;2.67;1.40;;;16.50;48.70;;;;;;5017574;28;20021;-81
2022/01/30 04:30:11;;;;;;;2.53;1.38;;;16.50;48.60;;;;;;5034034;28;20148;-81
2022/01/30 04:32:42;;;;;;;2.25;1.10;;;16.60;48.40;;;;;;5017819;28;20042;-81
2022/01/30 04:35:15;;;;;;;2.70;1.23;;;16.60;48.20;;;;;;5002288;28;20010;-80
2022/01/30 04:54:49;;;;;;;2.45;1.20;;;16.80;47.70;;;;;;5019985;28;20091;-80
2022/01/30 04:57:19;;;;;;;3.10;1.30;;;16.90;47.60;;;;;;5020724;28;20083;-80
2022/01/30 05:00:04;;;;;;;1.85;1.00;;;16.90;47.50;;;;;;5034810;28;20029;-80
2022/01/30 05:02:58;;;;;;;2.55;1.33;;;17.00;47.50;;;;;;5033939;28;20383;-80
2022/01/30 05:08:11;;;;;;;2.10;1.00;;;17.00;47.40;;;;;;5019743;28;20117;-80
2022/01/30 05:10:37;;;;;;;2.17;1.30;;;17.00;47.40;;;;;;5033445;28;20110;-81
2022/01/30 05:13:07;;;;;;;2.97;1.52;;;17.10;47.40;;;;;;5033132;28;20022;-79
2022/01/30 05:15:34;;;;;;;2.92;1.42;;;17.00;47.30;;;;;;5033108;28;20025;-81
2022/01/30 05:18:00;;;;;;;2.80;1.20;;;17.10;47.40;;;;;;5033209;28;20024;-80
2022/01/30 05:20:26;;;;;;;2.83;1.30;;;17.10;47.20;;;;;;5000374;28;20017;-81
2022/01/30 05:22:54;;;;;;;2.88;1.63;;;17.10;47.10;;;;;;5016794;28;20533;-80
2022/01/30 05:25:20;;;;;;;2.85;1.30;;;17.10;47.10;;;;;;5034374;28;20395;-80
2022/01/30 05:27:46;;;;;;;2.47;1.23;;;17.10;47.00;;;;;;5033023;28;20031;-80
2022/01/30 05:30:13;;;;;;;3.30;1.40;;;17.20;47.10;;;;;;5032889;28;20105;-80
2022/01/30 05:32:43;;;;;;;3.25;1.40;;;17.10;47.00;;;;;;5032669;28;20506;-81
2022/01/30 05:35:10;;;;;;;2.20;1.17;;;17.20;47.00;;;;;;5033796;28;20029;-81
2022/01/30 05:37:37;;;;;;;3.50;1.50;;;17.20;46.90;;;;;;5032728;28;20120;-81
2022/01/30 05:40:04;;;;;;;2.60;1.20;;;17.20;46.90;;;;;;5016541;28;20383;-80
2022/01/30 05:42:31;;;;;;;2.40;1.10;;;17.20;47.00;;;;;;5058442;28;20044;-85
2022/01/30 05:45:13;;;;;;;3.28;1.30;;;17.20;46.90;;;;;;5058668;28;20025;-85
2022/01/30 05:47:45;;;;;;;3.13;1.83;;;17.20;46.90;;;;;;5043022;28;20025;-85
2022/01/30 05:50:13;;;;;;;3.88;1.27;;;17.30;46.80;;;;;;5041072;28;20010;-85
2022/01/30 05:52:40;;;;;;;1.92;1.00;;;17.40;46.80;;;;;;5056973;28;20018;-85
2022/01/30 05:55:06;;;;;;;2.65;1.38;;;17.30;46.70;;;;;;5040699;28;20089;-85
2022/01/30 05:57:33;;;;;;;2.75;1.20;;;17.30;46.70;;;;;;5029916;28;20071;-85
2022/01/30 05:59:58;;;;;;;2.05;0.93;;;17.30;46.70;;;;;;5015645;28;20464;-86
2022/01/30 06:02:25;;;;;;;3.50;1.40;;;17.40;46.70;;;;;;5016091;28;20041;-86
2022/01/30 06:04:52;;;;;;;3.17;1.33;;;17.40;46.70;;;;;;5033668;28;20131;-86
2022/01/30 06:07:26;;;;;;;2.80;1.40;;;17.40;46.70;;;;;;5032485;28;20018;-86
2022/01/30 06:09:53;;;;;;;2.05;1.00;;;17.40;46.50;;;;;;5032070;28;20029;-85
2022/01/30 06:12:22;;;;;;;2.30;1.30;;;17.40;46.50;;;;;;5032393;28;20384;-86
2022/01/30 06:14:49;;;;;;;4.43;1.30;;;17.40;46.50;;;;;;5032352;28;20017;-86
2022/01/30 06:17:15;;;;;;;2.45;1.25;;;17.40;46.50;;;;;;5015602;28;20022;-86
2022/01/30 06:19:40;;;;;;;2.47;1.13;;;17.50;46.60;;;;;;4999189;28;20105;-85
2022/01/30 06:22:06;;;;;;;1.73;1.00;;;17.50;46.40;;;;;;5015581;28;20056;-85
2022/01/30 06:24:36;;;;;;;2.95;1.27;;;17.50;46.40;;;;;;5032164;28;20534;-86
2022/01/30 06:27:02;;;;;;;2.50;1.27;;;17.50;46.30;;;;;;5032925;28;20470;-86
2022/01/30 06:29:28;;;;;;;4.50;1.20;;;17.50;46.30;;;;;;5015515;28;20426;-86
2022/01/30 06:31:54;;;;;;;3.95;1.52;;;17.50;46.30;;;;;;5032938;28;20017;-86
2022/01/30 06:34:20;;;;;;;2.13;1.30;;;17.50;46.30;;;;;;5033066;28;20067;-86
2022/01/30 06:36:47;;;;;;;2.85;1.30;;;17.50;46.30;;;;;;5031729;28;20122;-86
2022/01/30 06:39:13;;;;;;;2.67;1.20;;;17.60;46.30;;;;;;5032967;28;20022;-85
2022/01/30 06:41:40;;;;;;;3.08;1.30;;;17.60;46.20;;;;;;5031710;28;20547;-86
2022/01/30 06:44:08;;;;;;;3.20;1.38;;;17.60;46.20;;;;;;5031872;28;20022;-86
2022/01/30 06:46:34;;;;;;;4.60;1.33;;;17.50;46.20;;;;;;5031885;28;20159;-86
2022/01/30 06:49:01;;;;;;;2.83;1.33;;;17.60;46.20;;;;;;5031970;28;20476;-86
2022/01/30 06:51:27;;;;;;;2.63;1.10;;;17.60;46.20;;;;;;5038374;28;20018;-84
2022/01/30 06:53:54;;;;;;;5.10;1.55;;;17.60;46.20;;;;;;5005560;28;20052;-86
2022/01/30 06:56:19;;;;;;;2.95;1.35;;;17.60;46.10;;;;;;5037802;28;20013;-85
2022/01/30 06:58:46;;;;;;;2.75;1.38;;;17.60;46.10;;;;;;5037538;28;20018;-85
2022/01/30 07:01:12;;;;;;;2.45;1.40;;;17.60;46.10;;;;;;5037387;28;20022;-84
2022/01/30 07:03:38;;;;;;;1.75;1.15;;;17.60;46.10;;;;;;5015317;28;20020;-80
2022/01/30 07:06:04;;;;;;;2.45;1.20;;;17.70;46.10;;;;;;4998672;28;20022;-80
2022/01/30 07:08:31;;;;;;;2.50;1.30;;;17.70;46.00;;;;;;5033057;28;20029;-80
2022/01/30 07:10:57;;;;;;;3.65;1.13;;;17.70;46.00;;;;;;5032699;28;20022;-81
2022/01/30 07:13:24;;;;;;;2.75;1.42;;;17.70;46.00;;;;;;5033811;28;20109;-80
2022/01/30 07:15:50;;;;;;;2.45;1.50;;;17.70;46.00;;;;;;5036639;28;20021;-80
2022/01/30 07:18:16;;;;;;;1.92;1.10;;;17.70;46.00;;;;;;5036928;28;20550;-80
2022/01/30 07:20:42;;;;;;;2.63;1.20;;;17.70;45.90;;;;;;5035447;28;20022;-80
2022/01/30 07:23:08;;;;;;;2.33;1.10;;;17.70;45.90;;;;;;5035578;28;20028;-80
2022/01/30 07:25:35;;;;;;;2.70;1.08;;;17.70;45.90;;;;;;5036426;28;20029;-80
2022/01/30 07:28:01;;;;;;;2.90;1.25;;;17.70;45.90;;;;;;5036642;28;20025;-80
2022/01/30 07:30:30;;;;;;;2.78;1.40;;;17.70;45.90;;;;;;5036592;28;20024;-80
2022/01/30 07:32:56;;;;;;;1.88;1.17;;;17.70;45.90;;;;;;5035365;28;20292;-80
2022/01/30 07:35:24;;;;;;;3.08;1.20;;;17.70;45.90;;;;;;5035018;28;20471;-80
2022/01/30 07:37:50;;;;;;;2.40;1.20;;;17.70;45.90;;;;;;5034837;28;20025;-80
2022/01/30 07:40:15;;;;;;;2.90;1.20;;;17.80;45.90;;;;;;5002198;28;20021;-80
2022/01/30 07:42:41;;;;;;;2.47;1.33;;;17.70;45.90;;;;;;5002098;28;20434;-80
2022/01/30 07:45:07;;;;;;;4.28;1.20;;;17.70;45.90;;;;;;5001988;28;20403;-80
2022/01/30 07:47:33;;;;;;;2.80;1.58;;;17.80;45.90;;;;;;5035042;28;20411;-80
2022/01/30 07:50:00;;;;;;;1.98;1.10;;;17.70;45.90;;;;;;5035163;28;20383;-80
2022/01/30 07:52:26;;;;;;;2.08;1.20;;;17.70;45.90;;;;;;5036135;28;20021;-80
2022/01/30 07:54:52;;;;;;;2.47;0.90;;;17.70;45.90;;;;;;5034886;28;20017;-80
2022/01/30 07:57:19;;;;;;;1.95;1.00;;;17.70;46.10;;;;;;5034658;28;20026;-80
2022/01/30 07:59:46;;;;;;;2.50;1.30;;;17.60;46.10;;;;;;5035806;28;20423;-80
2022/01/30 08:02:12;;;;;;;3.15;1.23;;;17.60;46.20;;;;;;5034811;28;20025;-80
2022/01/30 08:04:38;;;;;;;3.35;1.40;;;17.60;46.20;;;;;;5018059;28;20037;-80
2022/01/30 08:07:06;;;;;;;2.25;1.15;;;17.50;46.30;;;;;;5018324;28;20057;-81
2022/01/30 08:09:32;;;;;;;3.40;1.17;;;17.50;46.30;;;;;;5034319;28;20111;-80
2022/01/30 08:11:58;;;;;;;1.88;1.23;;;17.50;46.30;;;;;;5034261;28;20430;-80
2022/01/30 08:14:24;;;;;;;2.35;1.13;;;17.50;46.40;;;;;;5018009;28;20024;-80
2022/01/30 08:16:50;;;;;;;3.90;1.17;;;17.50;46.50;;;;;;5035392;28;20026;-81
2022/01/30 08:19:20;;;;;;;3.40;1.35;;;17.40;46.50;;;;;;5035645;28;20040;-80
2022/01/30 08:21:47;;;;;;;2.03;1.10;;;17.40;46.60;;;;;;5035479;28;20045;-82
2022/01/30 08:24:13;;;;;;;2.83;1.48;;;17.40;46.70;;;;;;5016597;28;20017;-81
2022/01/30 08:26:39;;;;;;;3.58;1.40;;;17.40;46.70;;;;;;5017973;28;20021;-81
2022/01/30 08:29:07;;;;;;;3.33;1.00;;;17.40;46.60;;;;;;5035483;28;20486;-82
2022/01/30 08:31:33;;;;;;;2.70;1.00;;;17.40;46.70;;;;;;5035460;28;20014;-82
2022/01/30 08:33:59;;;;;;;2.92;1.40;;;17.40;46.70;;;;;;5034166;28;20037;-81
2022/01/30 08:36:26;;;;;;;2.00;1.00;;;17.30;46.70;;;;;;5034157;28;20391;-81
2022/01/30 08:38:53;;;;;;;1.75;1.08;;;17.20;46.80;;;;;;5034951;28;20021;-81
2022/01/30 08:41:19;;;;;;;3.28;1.40;;;17.30;46.90;;;;;;5035223;28;20038;-81
2022/01/30 08:43:46;;;;;;;2.63;1.40;;;17.20;46.90;;;;;;5000998;28;20049;-80
2022/01/30 08:46:13;;;;;;;3.40;1.38;;;17.20;46.90;;;;;;5033665;28;20049;-81
2022/01/30 08:48:39;;;;;;;2.72;1.45;;;17.20;47.00;;;;;;5033777;28;20017;-80
2022/01/30 08:51:05;;;;;;;2.42;1.40;;;17.10;47.00;;;;;;5033476;28;20120;-80
2022/01/30 08:53:32;;;;;;;2.10;1.30;;;17.10;47.10;;;;;;5033584;28;20545;-81
2022/01/30 08:55:59;;;;;;;3.63;1.45;;;17.20;47.10;;;;;;5033692;28;20044;-81
2022/01/30 08:58:25;;;;;;;2.03;0.95;;;17.10;47.00;;;;;;5034657;28;20025;-80
2022/01/30 09:00:51;;;;;;;3.03;1.30;;;17.10;47.00;;;;;;5017433;28;20064;-81
2022/01/30 09:03:17;;;;;;;3.30;1.70;;;17.10;47.10;;;;;;5033375;28;20025;-81
2022/01/30 09:05:42;;;;;;;3.03;1.40;;;17.10;47.20;;;;;;5033323;28;20550;-81
2022/01/30 09:08:08;;;;;;;2.35;1.10;;;17.10;47.10;;;;;;5016895;28;20113;-80
2022/01/30 09:10:38;;;;;;;2.10;1.10;;;17.00;47.40;;;;;;5033584;28;20037;-81
2022/01/30 09:13:04;;;;;;;3.60;1.45;;;17.00;47.30;;;;;;5016941;28;20609;-81
2022/01/30 09:15:30;;;;;;;2.92;1.40;;;17.00;47.30;;;;;;5016989;28;20066;-80
2022/01/30 09:17:58;;;;;;;2.65;1.38;;;17.00;47.30;;;;;;5000433;28;20026;-80
2022/01/30 09:20:24;;;;;;;2.33;1.23;;;17.00;47.30;;;;;;5033123;28;20609;-80
2022/01/30 09:22:51;;;;;;;3.20;1.27;;;17.00;47.40;;;;;;5033310;28;20053;-81
2022/01/30 09:25:19;;;;;;;2.10;1.02;;;17.00;47.40;;;;;;5035265;28;20018;-81
2022/01/30 09:27:45;;;;;;;3.08;1.40;;;17.00;47.30;;;;;;5036696;28;20044;-80
2022/01/30 09:30:11;;;;;;;2.17;1.40;;;16.90;47.30;;;;;;5000318;28;20018;-81
2022/01/30 09:32:37;;;;;;;3.20;1.42;;;16.80;47.40;;;;;;5016568;28;20120;-80
2022/01/30 09:35:04;;;;;;;2.47;1.05;;;16.90;47.50;;;;;;5033059;28;20045;-80
2022/01/30 09:37:29;;;;;;;2.42;1.10;;;16.80;47.50;;;;;;5016915;28;20021;-81
2022/01/30 09:39:56;;;;;;;2.78;1.35;;;16.80;47.60;;;;;;5033818;28;20021;-80
2022/01/30 09:42:25;;;;;;;2.72;1.27;;;16.70;47.70;;;;;;5034540;28;20471;-80
2022/01/30 09:44:50;;;;;;;2.47;1.25;;;16.80;47.70;;;;;;5016250;28;20503;-81
2022/01/30 09:47:17;;;;;;;3.20;1.27;;;16.70;47.70;;;;;;5016785;28;20029;-80
2022/01/30 09:49:48;;;;;;;2.70;1.63;;;16.70;47.80;;;;;;5016522;28;20033;-80
2022/01/30 09:52:14;;;;;;;2.28;1.33;;;16.70;47.90;;;;;;5032510;28;20030;-80
2022/01/30 09:54:40;;;;;;;3.30;1.52;;;16.70;47.90;;;;;;5016532;28;20025;-80
2022/01/30 09:57:07;;;;;;;5.88;1.55;;;16.70;47.90;;;;;;5032592;28;20031;-80
2022/01/30 09:59:36;;;;;;;2.65;1.23;;;16.60;48.00;;;;;;5032426;28;20085;-80
2022/01/30 10:02:05;;;;;;;2.63;1.33;;;16.60;48.00;;;;;;5033866;28;20086;-81
2022/01/30 10:04:32;;;;;;;3.83;1.20;;;16.60;48.40;;;;;;5016474;28;20033;-81
2022/01/30 10:07:02;;;;;;;3.28;1.35;;;16.60;47.80;;;;;;5032881;28;20013;-80
2022/01/30 10:09:30;;;;;;;2.75;1.13;;;16.70;47.80;;;;;;5026260;28;20013;-80
2022/01/30 10:12:15;;;;;;;5.15;1.42;;;16.60;47.90;;;;;;5043808;28;20036;-81
2022/01/30 10:14:54;;;;;;;2.25;1.13;;;16.60;47.90;;;;;;5007947;28;20010;-80
2022/01/30 10:17:36;;;;;;;2.78;1.35;;;16.50;48.00;;;;;;5033504;28;20075;-80
2022/01/30 10:20:09;;;;;;;2.80;1.35;;;16.50;48.00;;;;;;5033203;28;20006;-80
2022/01/30 10:22:58;;;;;;;2.33;1.00;;;16.50;48.00;;;;;;5032785;28;20079;-79
2022/01/30 10:25:29;;;;;;;5.75;1.60;;;16.50;48.10;;;;;;5028230;28;20041;-80
2022/01/30 10:28:04;;;;;;;2.50;1.30;;;16.50;48.00;;;;;;5037982;28;20017;-80
2022/01/30 10:30:38;;;;;;;3.97;1.63;;;16.50;48.00;;;;;;5055652;28;20026;-80
2022/01/30 10:33:05;;;;;;;4.18;1.60;;;16.50;48.00;;;;;;5020713;28;20017;-80
2022/01/30 10:35:44;;;;;;;3.17;1.67;;;16.50;48.00;;;;;;5052898;28;20014;-80
2022/01/30 10:38:18;;;;;;;3.83;1.40;;;16.40;48.00;;;;;;5036592;28;20022;-80
2022/01/30 10:40:58;;;;;;;3.80;1.65;;;16.50;48.10;;;;;;5030182;28;20010;-80
2022/01/30 10:43:50;;;;;;;4.63;1.50;;;16.50;48.10;;;;;;5016500;28;20037;-85
2022/01/30 10:46:24;;;;;;;3.95;1.30;;;16.40;48.10;;;;;;5035333;28;21191;-85
2022/01/30 10:48:52;;;;;;;3.90;1.48;;;16.40;48.10;;;;;;5039746;28;20033;-85
2022/01/30 10:51:18;;;;;;;2.35;1.15;;;16.40;48.10;;;;;;5023878;28;20013;-85
2022/01/30 10:53:46;;;;;;;2.40;1.35;;;16.40;48.10;;;;;;5039728;28;20030;-84
2022/01/30 10:56:24;;;;;;;2.47;1.30;;;16.40;48.10;;;;;;5019743;28;20456;-84
2022/01/30 10:59:14;;;;;;;3.30;1.50;;;16.40;48.10;;;;;;5018790;28;20072;-85
2022/01/30 11:01:41;;;;;;;3.45;1.77;;;16.40;48.20;;;;;;5033415;28;20036;-85
2022/01/30 11:04:19;;;;;;;3.88;1.63;;;16.40;48.20;;;;;;5031890;28;20021;-80
2022/01/30 11:06:46;;;;;;;2.60;1.40;;;16.40;48.10;;;;;;5016741;28;20029;-80
2022/01/30 11:09:14;;;;;;;4.25;1.50;;;16.30;48.10;;;;;;5031374;28;20510;-80
2022/01/30 11:11:45;;;;;;;2.92;1.35;;;16.40;48.20;;;;;;5031519;28;20016;-80
2022/01/30 11:19:24;;;;;;;2.78;1.40;;;16.30;48.20;;;;;;5031577;28;20068;-80
2022/01/30 11:22:20;;;;;;;3.30;1.63;;;16.30;48.20;;;;;;5015527;28;20013;-80
2022/01/30 11:24:54;;;;;;;3.45;1.40;;;16.40;48.20;;;;;;4994637;28;20042;-80
2022/01/30 11:27:21;;;;;;;3.35;1.40;;;16.40;48.10;;;;;;4994948;28;20021;-80
2022/01/30 11:29:48;;;;;;;2.95;1.52;;;16.40;48.10;;;;;;4995532;28;20022;-80
2022/01/30 11:32:14;;;;;;;3.10;1.27;;;16.40;48.10;;;;;;4994586;28;20427;-80
2022/01/30 11:34:41;;;;;;;3.72;1.67;;;16.40;48.00;;;;;;5011043;28;20026;-80
2022/01/30 11:37:08;;;;;;;2.40;1.20;;;16.40;48.10;;;;;;4994481;28;20575;-81
2022/01/30 11:39:34;;;;;;;3.10;1.60;;;16.30;48.00;;;;;;4994706;28;20492;-81
2022/01/30 11:42:23;;;;;;;3.83;1.20;;;16.40;48.10;;;;;;5010813;28;20019;-81
2022/01/30 11:45:00;;;;;;;5.03;1.65;;;16.40;48.10;;;;;;4994312;28;20447;-81
2022/01/30 11:47:26;;;;;;;3.00;1.52;;;16.30;48.00;;;;;;5010301;28;20026;-81
2022/01/30 11:50:02;;;;;;;3.65;1.30;;;16.30;48.00;;;;;;4977861;28;20018;-81
2022/01/30 11:53:07;;;;;;;5.53;1.98;;;16.30;47.90;;;;;;5010416;28;20091;-80
2022/01/30 11:56:12;;;;;;;2.25;1.25;;;16.30;48.00;;;;;;5010339;28;20026;-81
2022/01/30 11:58:42;;;;;;;3.03;1.50;;;16.30;48.00;;;;;;5007676;28;20519;-80
2022/01/30 12:01:26;;;;;;;3.53;1.17;;;16.30;48.00;;;;;;5011276;28;20026;-80
2022/01/30 12:03:59;;;;;;;4.05;1.52;;;16.30;47.90;;;;;;5036052;28;20059;-80
2022/01/30 12:06:24;;;;;;;3.25;1.48;;;16.30;47.90;;;;;;5035980;28;20022;-80
2022/01/30 12:08:52;;;;;;;3.90;1.58;;;16.30;47.90;;;;;;5035996;28;20096;-80
2022/01/30 12:11:47;;;;;;;5.43;1.30;;;16.30;48.00;;;;;;5001799;28;20013;-80
2022/01/30 12:14:25;;;;;;;3.05;1.35;;;16.30;48.60;;;;;;5051297;28;20045;-80
2022/01/30 12:17:00;;;;;;;2.67;1.35;;;16.30;48.10;;;;;;5051510;28;20113;-80
2022/01/30 12:19:37;;;;;;;3.70;1.48;;;16.20;48.00;;;;;;5002821;28;20080;-80
2022/01/30 12:22:23;;;;;;;3.58;1.42;;;16.30;48.10;;;;;;5036507;28;20044;-85
2022/01/30 12:24:53;;;;;;;3.33;1.30;;;16.30;48.10;;;;;;5060554;28;20079;-85
2022/01/30 12:27:19;;;;;;;4.00;1.42;;;16.20;48.10;;;;;;5009999;28;20079;-85
2022/01/30 12:29:46;;;;;;;4.90;1.52;;;16.30;48.10;;;;;;5007513;28;20026;-85
2022/01/30 12:32:23;;;;;;;2.88;1.40;;;16.30;48.00;;;;;;5021138;28;20048;-86
2022/01/30 12:35:07;;;;;;;3.25;1.40;;;16.30;47.90;;;;;;5039121;28;20033;-86
2022/01/30 12:37:36;;;;;;;4.22;1.50;;;16.40;47.80;;;;;;5001448;28;20567;-86
2022/01/30 12:40:22;;;;;;;3.90;1.75;;;16.40;47.80;;;;;;5001258;28;20380;-85
2022/01/30 12:42:48;;;;;;;2.13;1.00;;;16.30;47.80;;;;;;5016910;28;20025;-81
2022/01/30 12:45:14;;;;;;;3.47;1.42;;;16.30;47.80;;;;;;5001005;28;20077;-80
2022/01/30 12:47:52;;;;;;;5.28;1.83;;;16.30;47.80;;;;;;5000978;28;20091;-80
2022/01/30 12:50:18;;;;;;;3.50;1.40;;;16.30;47.90;;;;;;5001313;28;20041;-80
2022/01/30 12:52:49;;;;;;;4.10;1.60;;;16.30;47.90;;;;;;5017592;28;20025;-80
2022/01/30 12:55:16;;;;;;;3.17;1.53;;;16.30;47.90;;;;;;5018224;28;20108;-80
2022/01/30 12:57:44;;;;;;;2.65;1.05;;;16.30;47.90;;;;;;5001042;28;20006;-81
2022/01/30 13:00:11;;;;;;;4.47;1.63;;;16.30;47.90;;;;;;5000881;28;20014;-80
2022/01/30 13:02:37;;;;;;;3.50;1.30;;;16.30;48.00;;;;;;5017582;28;20010;-85
2022/01/30 13:05:07;;;;;;;3.63;1.40;;;16.20;48.00;;;;;;5000717;28;20115;-85
2022/01/30 13:07:34;;;;;;;3.13;1.10;;;16.30;48.00;;;;;;5017517;28;20049;-85
2022/01/30 13:10:09;;;;;;;3.95;1.33;;;16.30;47.90;;;;;;5016524;28;20017;-85
2022/01/30 13:12:35;;;;;;;3.03;1.52;;;16.30;47.90;;;;;;5000996;28;20112;-85
2022/01/30 13:15:12;;;;;;;3.65;1.10;;;16.30;47.90;;;;;;5017376;28;20021;-85
2022/01/30 13:17:37;;;;;;;2.70;1.30;;;16.30;47.90;;;;;;5001149;28;20037;-85
2022/01/30 13:20:04;;;;;;;3.13;1.60;;;16.20;47.90;;;;;;5017052;28;20041;-85
2022/01/30 13:22:36;;;;;;;3.00;1.20;;;16.30;47.90;;;;;;5017234;28;20024;-81
2022/01/30 13:25:14;;;;;;;3.00;1.30;;;16.30;47.80;;;;;;5017568;28;20021;-80
2022/01/30 13:27:50;;;;;;;2.42;1.35;;;16.30;47.80;;;;;;5032972;28;20013;-80
2022/01/30 13:30:26;;;;;;;2.75;1.15;;;16.30;48.30;;;;;;5016371;28;20056;-81
2022/01/30 13:32:52;;;;;;;2.47;1.05;;;16.30;47.80;;;;;;5016828;28;20490;-81
2022/01/30 13:35:19;;;;;;;2.78;0.98;;;16.30;47.80;;;;;;4999904;28;20013;-81
2022/01/30 13:37:45;;;;;;;2.88;1.23;;;16.30;47.80;;;;;;5016463;28;20048;-81
2022/01/30 13:40:39;;;;;;;3.70;1.58;;;16.20;47.80;;;;;;5016383;28;20026;-81
2022/01/30 13:43:04;;;;;;;3.83;1.42;;;16.20;47.90;;;;;;5018762;28;20030;-81
2022/01/30 13:48:03;;;;;;;2.88;1.38;;;16.20;47.90;;;;;;5032757;28;20032;-81
2022/01/30 13:50:43;;;;;;;3.58;1.58;;;16.20;47.90;;;;;;5032499;28;20040;-81